createdAt,value
2017-10-18T05:06:33.180Z,78.93
2017-10-18T05:08:34.249Z,59.73
2017-10-18T05:10:35.248Z,68.67
2017-10-18T05:12:36.303Z,63.43
2017-10-18T05:14:37.360Z,62.10
2017-10-18T05:16:38.358Z,68.80
2017-10-18T05:21:07.701Z,72.77
2017-10-18T05:23:13.335Z,95.57
2017-10-18T05:25:14.350Z,76.83
2017-10-18T05:27:26.420Z,73.63
2017-10-18T05:29:42.591Z,78.93
2017-10-18T05:31:54.907Z,76.93
2017-10-18T05:34:13.169Z,70.03
2017-10-18T05:36:14.197Z,61.73
2017-10-18T05:38:15.212Z,63.90
2017-10-18T05:42:44.294Z,61.93
2017-10-18T05:44:45.282Z,55.23
2017-10-18T05:47:13.047Z,65.83
2017-10-18T05:54:13.838Z,71.60
2017-10-18T05:56:14.870Z,72.10
2017-10-18T05:58:15.969Z,88.90
2017-10-18T06:05:12.601Z,96.23
2017-10-18T06:09:49.978Z,89.97
2017-10-18T06:14:42.961Z,108.53
2017-10-18T06:16:44.309Z,77.37
2017-10-18T06:18:45.308Z,92.43
2017-10-18T06:20:46.378Z,106.87
2017-10-18T06:22:47.417Z,78.77
2017-10-18T06:29:53.080Z,88.03
2017-10-18T06:32:12.857Z,99.90
2017-10-18T06:39:22.189Z,116.83
2017-10-18T06:41:26.265Z,112.80
2017-10-18T06:46:04.249Z,124.57
2017-10-18T06:50:32.794Z,146.33
2017-10-18T06:52:55.331Z,126.30
2017-10-18T06:54:56.895Z,152.20
2017-10-18T07:02:14.087Z,123.73
2017-10-18T07:11:55.427Z,128.13
2017-10-18T07:14:13.467Z,131.23
2017-10-18T07:18:55.718Z,110.10
2017-10-18T07:38:42.691Z,103.93
2017-10-18T07:43:11.592Z,132.03
2017-10-18T07:47:40.460Z,159.67
2017-10-18T07:49:41.436Z,146.13
2017-10-18T07:51:42.423Z,161.70
2017-10-18T08:01:03.878Z,203.67
2017-10-18T08:03:13.274Z,205.10
2017-10-18T08:07:43.123Z,219.47
2017-10-18T08:14:44.497Z,173.10
2017-10-18T08:16:45.725Z,190.93
2017-10-18T08:19:12.568Z,155.60
2017-10-18T08:26:12.767Z,149.03
2017-10-18T08:28:13.821Z,168.93
2017-10-18T08:32:42.821Z,160.80
2017-10-18T08:34:43.856Z,151.20
2017-10-18T08:44:37.437Z,135.27
2017-10-18T08:46:40.834Z,145.70
2017-10-18T08:48:42.047Z,145.77
2017-10-18T08:50:43.076Z,140.60
2017-10-18T08:57:58.794Z,149.23
2017-10-18T08:59:59.857Z,154.13
2017-10-18T09:04:42.669Z,140.37
2017-10-18T09:09:21.897Z,176.33
2017-10-18T09:11:22.957Z,183.43
2017-10-18T09:13:23.990Z,192.15
2017-10-18T09:15:25.025Z,203.20
2017-10-18T09:19:54.086Z,170.80
2017-10-18T09:22:12.985Z,182.00
2017-10-18T09:26:45.720Z,199.97
2017-10-18T09:36:13.661Z,191.90
2017-10-18T09:38:16.081Z,181.27
2017-10-18T09:40:33.805Z,204.53
2017-10-18T09:42:35.002Z,170.33
2017-10-18T09:49:42.200Z,183.50
2017-10-18T09:54:49.782Z,150.07
2017-10-18T09:56:50.826Z,162.63
2017-10-18T09:58:51.828Z,143.03
2017-10-18T10:01:11.961Z,162.93
2017-10-18T10:03:13.072Z,148.03
2017-10-18T10:05:14.046Z,160.60
2017-10-18T10:07:25.525Z,164.47
2017-10-18T10:09:50.514Z,154.50
2017-10-18T10:14:43.043Z,158.27
2017-10-18T10:16:44.172Z,158.03
2017-10-18T10:18:45.230Z,172.90
2017-10-18T10:20:46.402Z,166.97
2017-10-18T10:25:15.148Z,168.83
2017-10-18T10:27:16.176Z,157.90
2017-10-18T10:29:17.237Z,171.77
2017-10-18T10:31:42.923Z,177.73
2017-10-18T10:36:11.841Z,183.67
2017-10-18T10:40:40.442Z,147.10
2017-10-18T10:42:42.711Z,164.90
2017-10-18T10:47:12.934Z,134.90
2017-10-18T10:51:40.204Z,133.33
2017-10-18T10:53:41.246Z,117.40
2017-10-18T10:58:12.467Z,125.70
2017-10-18T11:02:41.123Z,125.37
2017-10-18T11:05:02.443Z,110.87
2017-10-18T11:11:51.768Z,109.70
2017-10-18T11:16:22.052Z,111.80
2017-10-18T11:23:44.327Z,109.17
2017-10-18T11:25:45.689Z,100.30
2017-10-18T11:32:56.207Z,102.47
2017-10-18T11:35:15.022Z,111.77
2017-10-18T11:47:32.710Z,93.93
2017-10-18T11:49:41.797Z,100.30
2017-10-18T11:54:16.002Z,101.07
2017-10-18T11:56:17.705Z,112.67
2017-10-18T11:58:18.832Z,96.73
2017-10-18T12:00:20.125Z,96.10
2017-10-18T12:02:21.662Z,91.67
2017-10-18T12:04:36.449Z,98.07
2017-10-18T12:06:43.751Z,86.47
2017-10-18T12:08:45.296Z,86.40
2017-10-18T12:10:46.367Z,85.67
2017-10-18T12:12:47.417Z,84.47
2017-10-18T12:14:49.632Z,78.30
2017-10-18T12:19:42.431Z,82.13
2017-10-18T12:24:11.203Z,74.47
2017-10-18T12:33:47.871Z,87.43
2017-10-18T12:35:49.108Z,86.33
2017-10-18T12:38:14.085Z,75.63
2017-10-18T12:40:15.114Z,87.13
2017-10-18T12:49:41.061Z,76.80
2017-10-18T12:54:13.479Z,62.60
2017-10-18T12:59:02.829Z,77.43
2017-10-18T13:01:14.238Z,75.37
2017-10-18T13:05:42.845Z,67.30
2017-10-18T13:07:54.309Z,78.43
2017-10-18T13:09:55.587Z,74.03
2017-10-18T13:11:56.723Z,65.87
2017-10-18T13:13:57.973Z,66.57
2017-10-18T13:20:55.745Z,77.37
2017-10-18T13:22:56.944Z,103.37
2017-10-18T13:24:58.124Z,80.93
2017-10-18T13:33:06.813Z,85.17
2017-10-18T13:35:10.013Z,83.00
2017-10-18T13:37:21.654Z,73.63
2017-10-18T13:39:42.593Z,69.87
2017-10-18T13:41:45.445Z,65.17
2017-10-18T13:43:56.297Z,56.60
2017-10-18T13:46:12.710Z,57.20
2017-10-18T13:48:13.804Z,73.67
2017-10-18T13:50:30.219Z,65.43
2017-10-18T13:52:31.386Z,65.43
2017-10-18T13:54:42.617Z,76.23
2017-10-18T13:56:44.993Z,86.47
2017-10-18T13:58:46.071Z,117.70
2017-10-18T14:00:47.033Z,121.00
2017-10-18T14:03:12.435Z,114.27
2017-10-18T14:05:13.551Z,102.43
2017-10-18T14:07:15.602Z,111.43
2017-10-18T14:09:16.864Z,118.50
2017-10-18T14:13:35.499Z,116.37
2017-10-18T14:15:43.975Z,104.00
2017-10-18T14:20:13.456Z,111.80
2017-10-18T14:22:14.488Z,104.83
2017-10-18T14:24:15.501Z,103.60
2017-10-18T14:33:45.952Z,105.43
2017-10-18T14:38:14.542Z,117.10
2017-10-18T14:40:15.656Z,128.03
2017-10-18T14:44:54.792Z,125.33
2017-10-18T14:49:43.410Z,129.23
2017-10-18T14:51:44.457Z,116.93
2017-10-18T14:56:45.238Z,117.07
2017-10-18T15:03:42.420Z,105.93
2017-10-18T15:08:11.744Z,96.60
2017-10-18T15:10:12.784Z,103.90
2017-10-18T15:15:12.420Z,93.43
2017-10-18T15:22:27.839Z,83.00
2017-10-18T15:24:28.942Z,83.10
2017-10-18T15:26:29.989Z,96.47
2017-10-18T15:28:31.132Z,73.20
2017-10-18T15:30:32.466Z,76.20
2017-10-18T15:32:35.821Z,80.00
2017-10-18T15:34:44.953Z,85.93
2017-10-18T15:36:54.625Z,80.30
2017-10-18T15:38:55.755Z,87.47
2017-10-18T15:40:56.896Z,82.30
2017-10-18T15:43:14.130Z,88.43
2017-10-18T15:45:15.150Z,89.40
2017-10-18T15:49:53.003Z,78.97
2017-10-18T15:51:54.097Z,80.70
2017-10-18T15:59:13.969Z,83.83
2017-10-18T16:01:14.956Z,85.10
2017-10-18T16:03:15.995Z,83.67
2017-10-18T16:05:16.998Z,71.10
2017-10-18T16:09:55.362Z,87.53
2017-10-18T16:12:12.650Z,80.63
2017-10-18T16:14:14.434Z,89.63
2017-10-18T16:16:15.600Z,91.37
2017-10-18T16:18:16.640Z,81.17
2017-10-18T16:22:45.506Z,94.17
2017-10-18T16:29:51.188Z,92.37
2017-10-18T16:31:52.225Z,92.00
2017-10-18T16:33:53.254Z,84.50
2017-10-18T16:35:54.435Z,103.27
2017-10-18T16:38:00.673Z,87.33
2017-10-18T16:40:02.483Z,95.63
2017-10-18T16:42:04.038Z,95.63
2017-10-18T16:44:05.215Z,94.70
2017-10-18T16:46:06.210Z,84.30
2017-10-18T16:48:07.446Z,97.80
2017-10-18T16:50:08.630Z,105.97
2017-10-18T16:52:09.926Z,81.37
2017-10-18T16:54:10.922Z,89.60
2017-10-18T16:56:12.013Z,85.40
2017-10-18T16:58:13.109Z,86.63
2017-10-18T17:00:14.123Z,100.50
2017-10-18T17:02:15.094Z,88.07
2017-10-18T17:04:16.815Z,80.23
2017-10-18T17:06:17.818Z,81.37
2017-10-18T17:08:18.804Z,62.63
2017-10-18T17:10:20.020Z,55.37
2017-10-18T17:12:21.016Z,57.67
2017-10-18T17:14:25.806Z,59.47
2017-10-18T17:16:26.888Z,61.10
2017-10-18T17:18:27.911Z,70.23
2017-10-18T17:20:28.938Z,89.80
2017-10-18T17:22:29.900Z,70.70
2017-10-18T17:24:42.847Z,83.93
2017-10-18T17:26:43.869Z,72.30
2017-10-18T17:28:44.857Z,73.17
2017-10-18T17:30:50.099Z,80.00
2017-10-18T17:35:20.394Z,87.90
2017-10-18T17:37:21.639Z,53.90
2017-10-18T17:39:43.727Z,46.73
2017-10-18T17:41:45.025Z,57.67
2017-10-18T17:43:46.219Z,46.37
2017-10-18T17:45:49.543Z,43.70
2017-10-18T17:50:19.097Z,55.00
2017-10-18T17:52:20.424Z,57.00
2017-10-18T17:54:22.307Z,60.50
2017-10-18T17:56:24.172Z,72.90
2017-10-18T17:58:25.791Z,68.37
2017-10-18T18:00:27.325Z,65.57
2017-10-18T18:02:28.466Z,67.30
2017-10-18T18:04:29.421Z,72.10
2017-10-18T18:06:31.047Z,72.80
2017-10-18T18:08:32.061Z,111.03
2017-10-18T18:10:33.180Z,93.00
2017-10-18T18:12:36.188Z,99.03
2017-10-18T18:14:37.349Z,90.90
2017-10-18T18:16:38.383Z,100.87
2017-10-18T18:18:39.373Z,115.10
2017-10-18T18:20:41.485Z,91.37
2017-10-18T18:22:42.659Z,95.97
2017-10-18T18:24:43.661Z,90.67
2017-10-18T18:26:52.288Z,115.90
2017-10-18T18:28:53.384Z,105.10
2017-10-18T18:30:54.352Z,108.32
2017-10-18T18:32:55.356Z,109.63
2017-10-18T18:34:57.903Z,98.70
2017-10-18T18:36:58.923Z,94.47
2017-10-18T18:38:59.873Z,92.20
2017-10-18T18:41:07.561Z,117.93
2017-10-18T18:43:08.689Z,104.07
2017-10-18T18:45:09.722Z,104.43
2017-10-18T18:47:10.706Z,99.70
2017-10-18T18:49:11.684Z,114.00
2017-10-18T18:51:12.719Z,107.77
2017-10-18T18:53:13.706Z,102.57
2017-10-18T18:55:15.493Z,101.13
2017-10-18T18:57:16.440Z,109.40
2017-10-18T19:01:58.989Z,116.23
2017-10-18T19:04:00.125Z,98.70
2017-10-18T19:06:01.405Z,116.63
2017-10-18T19:08:02.728Z,101.37
2017-10-18T19:10:03.797Z,113.73
2017-10-18T19:12:04.952Z,115.10
2017-10-18T19:14:06.621Z,112.67
2017-10-18T19:16:07.769Z,104.83
2017-10-18T19:18:22.693Z,119.00
2017-10-18T19:20:23.814Z,107.60
2017-10-18T19:22:30.150Z,126.27
2017-10-18T19:24:31.266Z,161.40
2017-10-18T19:26:32.417Z,149.13
2017-10-18T19:28:33.495Z,143.57
2017-10-18T19:30:34.479Z,83.27
2017-10-18T19:32:35.440Z,69.93
2017-10-18T19:34:36.477Z,66.53
2017-10-18T19:36:37.489Z,70.87
2017-10-18T19:38:39.205Z,69.13
2017-10-18T19:40:40.328Z,67.97
2017-10-18T19:42:41.525Z,71.63
2017-10-18T19:44:44.195Z,91.37
2017-10-18T19:46:45.967Z,99.67
2017-10-18T19:48:47.973Z,122.30
2017-10-18T19:50:49.685Z,106.70
2017-10-18T19:52:50.776Z,119.77
2017-10-18T19:54:52.060Z,110.57
2017-10-18T19:56:53.050Z,112.17
2017-10-18T19:58:54.248Z,107.10
2017-10-18T20:00:56.001Z,101.00
2017-10-18T20:02:57.013Z,110.20
2017-10-18T20:05:02.645Z,113.93
2017-10-18T20:07:17.639Z,108.40
2017-10-18T20:09:44.081Z,101.30
2017-10-18T20:11:45.280Z,99.80
2017-10-18T20:16:15.156Z,76.77
2017-10-18T20:18:16.333Z,76.57
2017-10-18T20:20:17.517Z,77.03
2017-10-18T20:22:18.676Z,68.43
2017-10-18T20:24:19.901Z,77.00
2017-10-18T20:28:57.733Z,89.93
2017-10-18T20:30:58.699Z,97.83
2017-10-18T20:32:59.678Z,108.87
2017-10-18T20:35:00.672Z,114.43
2017-10-18T20:37:01.650Z,106.63
2017-10-18T20:39:09.656Z,80.60
2017-10-18T20:41:12.616Z,132.00
2017-10-18T20:43:16.032Z,145.93
2017-10-18T20:45:17.190Z,156.27
2017-10-18T20:47:18.164Z,182.27
2017-10-18T20:49:19.148Z,211.80
2017-10-18T20:51:20.868Z,185.73
2017-10-18T20:53:22.311Z,235.03
2017-10-18T20:55:23.335Z,198.60
2017-10-18T20:57:24.313Z,204.90
2017-10-18T20:59:25.315Z,217.37
2017-10-18T21:01:26.465Z,219.20
2017-10-18T21:03:27.444Z,233.93
2017-10-18T21:05:28.569Z,240.37
2017-10-18T21:07:29.552Z,215.93
2017-10-18T21:09:30.520Z,230.30
2017-10-18T21:11:31.594Z,199.03
2017-10-18T21:13:33.289Z,351.33
2017-10-18T21:15:34.285Z,335.63
2017-10-18T21:17:35.298Z,216.93
2017-10-18T21:19:36.264Z,229.20
2017-10-18T21:21:37.298Z,310.30
2017-10-18T21:23:38.279Z,346.90
2017-10-18T21:25:39.948Z,231.47
2017-10-18T21:27:40.980Z,430.97
2017-10-18T21:29:42.020Z,286.37
2017-10-18T21:31:43.489Z,393.00
2017-10-18T21:33:44.492Z,346.27
2017-10-18T21:35:45.523Z,212.17
2017-10-18T21:37:46.628Z,303.67
2017-10-18T21:39:52.594Z,281.10
2017-10-18T21:41:53.797Z,281.27
2017-10-18T21:43:54.753Z,222.50
2017-10-18T21:45:55.727Z,265.47
2017-10-18T21:47:56.722Z,277.77
2017-10-18T21:49:59.590Z,356.33
2017-10-18T21:52:00.596Z,234.53
2017-10-18T21:54:02.848Z,385.83
2017-10-18T21:56:03.885Z,394.97
2017-10-18T21:58:04.868Z,622.33
2017-10-18T22:00:05.853Z,240.57
2017-10-18T22:02:06.912Z,316.47
2017-10-18T22:04:07.872Z,245.30
2017-10-18T22:06:09.573Z,238.20
2017-10-18T22:08:11.951Z,367.40
2017-10-18T22:10:13.134Z,399.90
2017-10-18T22:12:14.108Z,173.57
2017-10-18T22:14:16.145Z,293.97
2017-10-18T22:16:17.226Z,239.90
2017-10-18T22:18:18.932Z,313.77
2017-10-18T22:20:19.953Z,563.70
2017-10-18T22:22:21.680Z,261.60
2017-10-18T22:24:24.440Z,263.60
2017-10-18T22:26:26.147Z,411.30
2017-10-18T22:28:27.171Z,287.57
2017-10-18T22:30:28.141Z,337.73
2017-10-18T22:32:31.243Z,302.27
2017-10-18T22:34:32.401Z,363.47
2017-10-18T22:36:33.395Z,239.37
2017-10-18T22:38:36.887Z,192.33
2017-10-18T22:40:38.071Z,177.07
2017-10-18T22:42:39.033Z,298.10
2017-10-18T22:44:40.024Z,292.80
2017-10-18T22:46:40.992Z,261.17
2017-10-18T22:48:41.980Z,252.20
2017-10-18T22:50:43.065Z,386.73
2017-10-18T22:52:44.771Z,341.40
2017-10-18T22:54:45.745Z,291.93
2017-10-18T22:56:46.724Z,302.60
2017-10-18T22:58:47.659Z,449.23
2017-10-18T23:00:48.613Z,307.73
2017-10-18T23:02:52.397Z,457.33
2017-10-18T23:04:53.534Z,483.83
2017-10-18T23:06:54.504Z,259.67
2017-10-18T23:08:55.464Z,182.67
2017-10-18T23:10:56.448Z,222.97
2017-10-18T23:12:57.452Z,259.67
2017-10-18T23:14:58.424Z,315.37
2017-10-18T23:17:00.151Z,401.20
2017-10-18T23:19:01.120Z,374.43
2017-10-18T23:23:14.268Z,346.67
2017-10-18T23:29:43.138Z,281.17
2017-10-18T23:34:19.333Z,460.00
2017-10-18T23:36:20.285Z,463.87
2017-10-18T23:38:21.290Z,158.23
2017-10-18T23:40:22.427Z,93.33
2017-10-18T23:42:23.381Z,345.47
2017-10-18T23:44:24.371Z,442.73
2017-10-18T23:46:25.379Z,498.33
2017-10-18T23:48:26.344Z,343.70
2017-10-18T23:50:28.417Z,491.70
2017-10-18T23:54:48.728Z,394.33
2017-10-18T23:56:49.686Z,445.47
2017-10-18T23:58:50.664Z,323.33
